Weather History for Phillips, WI

Change the Weather History Date:

Monday, September 8, 2014

  Actual Average Record
Temperature  
Mean Temperature 60 °F -  
Max Temperature 67 °F 70 °F 87 °F (2003)
Min Temperature 52 °F 50 °F 37 °F (1998)
Degree Days  
Heating Degree Days 6    
Growing Degree Days 10 (Base 50)    
Moisture  
Dew Point 53 °F    
Average Humidity 80    
Maximum Humidity 97    
Minimum Humidity 59    
Precipitation  
Precipitation 0.01 in - - ()
Sea Level Pressure  
Sea Level Pressure 30.00 in    
Wind  
Wind Speed 6 mph (South)    
Max Wind Speed 17 mph    
Max Gust Speed 25 mph    
Visibility 10 miles    
Events Rain    
Averages and records for this station are not official NWS values.
T = Trace of Precipitation, MM = Missing Value Source: NWS Daily Summary

Daily Weather History Graph

Daily Weather History Graph

Search for Another Location

Airport:

Trip Planner

Search our weather history database for the weather conditions in past years. The results will help you decide how hot, cold, wet, or windy it might be!

Date:

Astronomy

Sep. 08, 2014 Rise Set
Actual Time 6:31 AM CDT 7:26 PM CDT
Civil Twilight 6:01 AM CDT 7:56 PM CDT
Nautical Twilight 5:24 AM CDT 8:32 PM CDT
Astronomical Twilight 4:46 AM CDT 9:10 PM CDT
Moon 7:04 PM CDT (9/8) 5:56 AM CDT (9/8)
Length of Visible Light 13h 55m
Length of Day
12h 54m
Full, 100% of the Moon is Illuminated
Sep 8
Full
Sep 8
Full
Sep 15
Last Quarter
Sep 24
New
Oct 1
First Quarter

Hourly Weather History & Observations

Time (CDT) Temp. Dew Point Humidity Pressure Visibility Wind Dir Wind Speed Gust Speed Precip Events Conditions
12:15 AM 52.5 °F 51.4 °F 96% 30.08 in 10.0 mi Calm Calm - N/A   Clear
12:35 AM 52.3 °F 51.6 °F 97% 30.08 in 10.0 mi Calm Calm - N/A   Clear
12:55 AM 52.0 °F 51.1 °F 97% 30.07 in 10.0 mi Calm Calm - N/A   Clear
1:15 AM 52.2 °F 51.1 °F 96% 30.07 in 10.0 mi South 3.5 mph - N/A   Clear
1:35 AM 53.4 °F 51.4 °F 93% 30.07 in 10.0 mi South 3.5 mph - N/A   Scattered Clouds
1:55 AM 55.0 °F 52.2 °F 90% 30.07 in 10.0 mi South 4.6 mph - N/A   Mostly Cloudy
2:15 AM 55.0 °F 52.2 °F 90% 30.07 in 10.0 mi South 4.6 mph - N/A   Mostly Cloudy
2:35 AM 55.2 °F 52.0 °F 89% 30.06 in 10.0 mi South 3.5 mph - N/A   Overcast
2:55 AM 55.4 °F 52.0 °F 88% 30.06 in 10.0 mi South 5.8 mph - N/A   Mostly Cloudy
3:15 AM 55.4 °F 52.2 °F 89% 30.06 in 10.0 mi South 6.9 mph - N/A   Mostly Cloudy
3:35 AM 55.6 °F 52.2 °F 88% 30.06 in 10.0 mi South 5.8 mph - N/A   Overcast
3:55 AM 55.6 °F 52.0 °F 88% 30.06 in 10.0 mi South 4.6 mph - N/A   Mostly Cloudy
4:15 AM 55.4 °F 52.0 °F 88% 30.06 in 10.0 mi South 5.8 mph - N/A   Mostly Cloudy
4:35 AM 55.0 °F 52.0 °F 89% 30.06 in 10.0 mi South 5.8 mph - N/A   Scattered Clouds
4:55 AM 54.9 °F 52.0 °F 90% 30.06 in 10.0 mi South 4.6 mph - N/A   Clear
5:15 AM 54.5 °F 51.8 °F 91% 30.05 in 10.0 mi SSE 4.6 mph - N/A   Clear
5:35 AM 54.1 °F 51.4 °F 91% 30.05 in 10.0 mi South 4.6 mph - N/A   Clear
5:55 AM 53.8 °F 51.3 °F 91% 30.05 in 10.0 mi South 4.6 mph - N/A   Clear
6:15 AM 53.6 °F 51.1 °F 91% 30.05 in 10.0 mi South 4.6 mph - N/A   Clear
6:35 AM 53.6 °F 51.1 °F 91% 30.05 in 10.0 mi SSE 5.8 mph - N/A   Clear
6:55 AM 53.6 °F 51.1 °F 91% 30.05 in 10.0 mi South 4.6 mph - N/A   Clear
7:15 AM 54.3 °F 51.3 °F 89% 30.04 in 10.0 mi South 4.6 mph - N/A   Clear
7:35 AM 55.6 °F 51.8 °F 87% 30.04 in 10.0 mi South 4.6 mph - N/A   Clear
7:55 AM 57.2 °F 52.2 °F 83% 30.04 in 10.0 mi South 6.9 mph - N/A   Clear
8:15 AM 58.5 °F 52.7 °F 81% 30.03 in 10.0 mi South 8.1 mph - N/A   Clear
8:35 AM 59.9 °F 53.4 °F 79% 30.03 in 10.0 mi South 9.2 mph - N/A   Clear
8:55 AM 61.2 °F 53.4 °F 76% 30.03 in 10.0 mi South 8.1 mph - N/A   Clear
9:15 AM 62.8 °F 52.7 °F 70% 30.02 in 10.0 mi South 12.7 mph 19.6 mph N/A   Clear
9:35 AM 63.5 °F 53.2 °F 69% 30.02 in 10.0 mi SSW 11.5 mph 17.3 mph N/A   Clear
9:55 AM 64.8 °F 53.1 °F 66% 30.02 in 10.0 mi South 12.7 mph 18.4 mph N/A   Clear
10:15 AM 66.2 °F 53.4 °F 63% 30.01 in 10.0 mi SSW 11.5 mph 19.6 mph N/A   Clear
10:35 AM 66.4 °F 52.3 °F 61% 30.01 in 10.0 mi SSW 17.3 mph 24.2 mph N/A   Clear
10:55 AM 66.2 °F 52.0 °F 60% 30.01 in 10.0 mi SSW 15.0 mph 25.3 mph N/A   Clear
11:15 AM 67.1 °F 52.3 °F 59% 30.01 in 10.0 mi SSW 15.0 mph 24.2 mph N/A   Clear
11:35 AM 66.6 °F 52.5 °F 61% 30.00 in 10.0 mi South 13.8 mph 17.3 mph N/A   Clear
11:55 AM 66.0 °F 51.8 °F 60% 30.00 in 10.0 mi SSW 15.0 mph 24.2 mph N/A   Clear
12:15 PM 65.5 °F 52.5 °F 63% 30.00 in 10.0 mi South 15.0 mph 23.0 mph N/A   Clear
12:35 PM 64.8 °F 52.5 °F 64% 30.00 in 10.0 mi South 10.4 mph 17.3 mph N/A   Clear
12:55 PM 64.4 °F 53.6 °F 68% 29.99 in 10.0 mi South 6.9 mph - N/A   Scattered Clouds
1:15 PM 63.9 °F 53.1 °F 68% 29.99 in 10.0 mi South 8.1 mph - N/A   Overcast
1:35 PM 63.5 °F 53.4 °F 70% 29.98 in 10.0 mi South 8.1 mph - N/A   Overcast
1:55 PM 62.2 °F 55.0 °F 77% 29.97 in 10.0 mi South 9.2 mph - N/A Rain Light Rain
2:15 PM 61.7 °F 55.9 °F 81% 29.97 in 10.0 mi SSW 5.8 mph - N/A Rain Light Rain
2:35 PM 63.1 °F 56.5 °F 79% 29.97 in 10.0 mi South 5.8 mph - N/A   Overcast
3:15 PM 64.8 °F 55.0 °F 71% 29.97 in 10.0 mi SSW 6.9 mph - N/A   Overcast
3:35 PM 63.9 °F 54.9 °F 72% 29.97 in 10.0 mi South 9.2 mph - N/A   Overcast
3:55 PM 63.5 °F 54.7 °F 73% 29.96 in 10.0 mi South 6.9 mph - N/A   Overcast
4:15 PM 63.5 °F 54.5 °F 72% 29.96 in 10.0 mi South 9.2 mph - N/A   Overcast
4:35 PM 62.8 °F 53.8 °F 72% 29.96 in 10.0 mi South 8.1 mph - N/A   Overcast
5:15 PM 62.6 °F 55.4 °F 77% 29.94 in 10.0 mi South 8.1 mph - N/A   Overcast
5:35 PM 62.8 °F 55.4 °F 77% 29.93 in 10.0 mi SSE 8.1 mph - N/A   Overcast
5:55 PM 62.6 °F 55.0 °F 76% 29.93 in 10.0 mi South 6.9 mph - N/A   Overcast
6:15 PM 62.8 °F 55.2 °F 76% 29.92 in 10.0 mi SSE 6.9 mph - N/A   Overcast
6:35 PM 62.8 °F 55.6 °F 77% 29.92 in 10.0 mi SSE 6.9 mph - N/A   Mostly Cloudy
6:55 PM 62.6 °F 55.4 °F 77% 29.92 in 10.0 mi SSE 8.1 mph - N/A   Mostly Cloudy
7:15 PM 61.7 °F 54.9 °F 78% 29.91 in 10.0 mi South 9.2 mph - N/A   Scattered Clouds
7:35 PM 61.2 °F 54.5 °F 79% 29.91 in 10.0 mi South 9.2 mph - N/A   Clear
7:55 PM 60.4 °F 54.5 °F 81% 29.92 in 10.0 mi South 6.9 mph - N/A   Clear
8:15 PM 59.5 °F 54.3 °F 83% 29.92 in 10.0 mi South 5.8 mph - N/A   Clear
8:35 PM 58.8 °F 54.0 °F 84% 29.93 in 10.0 mi South 4.6 mph - N/A   Clear
8:55 PM 59.0 °F 54.3 °F 84% 29.93 in 10.0 mi South 4.6 mph - N/A   Mostly Cloudy
9:15 PM 59.9 °F 54.5 °F 82% 29.94 in 10.0 mi South 5.8 mph - N/A   Overcast
9:35 PM 59.9 °F 54.5 °F 82% 29.93 in 10.0 mi South 8.1 mph - N/A   Overcast
9:55 PM 60.3 °F 54.5 °F 81% 29.93 in 10.0 mi South 9.2 mph - N/A   Overcast
10:15 PM 59.9 °F 54.3 °F 82% 29.92 in 10.0 mi South 6.9 mph - N/A   Mostly Cloudy
10:35 PM 59.9 °F 54.5 °F 82% 29.93 in 10.0 mi South 5.8 mph - N/A   Mostly Cloudy
10:55 PM 60.1 °F 54.5 °F 82% 29.93 in 10.0 mi SSW 5.8 mph - N/A   Overcast
11:15 PM 59.0 °F 54.5 °F 85% 29.93 in 10.0 mi SSW 5.8 mph - N/A   Scattered Clouds
11:35 PM 58.5 °F 54.5 °F 87% 29.93 in 10.0 mi SSW 4.6 mph - N/A   Clear
11:55 PM 58.1 °F 54.1 °F 87% 29.93 in 10.0 mi SSW 3.5 mph - N/A   Clear